createdAt,value
2023-04-18T00:00:26.159Z,98.73
2023-04-18T00:03:30.029Z,98.77
2023-04-18T00:06:32.825Z,98.31
2023-04-18T00:09:35.273Z,98.77
2023-04-18T00:12:37.690Z,99.14
2023-04-18T00:15:41.815Z,99.25
2023-04-18T00:18:44.020Z,99.16
2023-04-18T00:21:47.100Z,99.19
2023-04-18T00:24:51.198Z,99.16
2023-04-18T00:27:53.425Z,99.25
2023-04-18T00:30:55.638Z,99.05
2023-04-18T00:33:58.710Z,99.24
2023-04-18T00:37:00.940Z,98.89
2023-04-18T00:40:05.686Z,98.89
2023-04-18T00:43:08.500Z,98.87
2023-04-18T00:46:12.142Z,99.00
2023-04-18T00:49:14.440Z,99.06
2023-04-18T00:52:17.744Z,99.11
2023-04-18T00:55:20.635Z,99.14
2023-04-18T00:58:24.134Z,99.00
2023-04-18T01:01:27.089Z,99.15
2023-04-18T01:04:29.924Z,99.46
2023-04-18T01:07:33.603Z,99.99
2023-04-18T01:10:36.467Z,99.99
2023-04-18T01:13:38.687Z,99.99
2023-04-18T01:16:40.917Z,99.99
2023-04-18T01:19:49.546Z,99.99
2023-04-18T01:22:52.494Z,99.99
2023-04-18T01:25:54.758Z,99.99
2023-04-18T01:28:57.067Z,99.99
2023-04-18T01:31:59.370Z,99.99
2023-04-18T01:35:01.894Z,99.99
2023-04-18T01:38:04.228Z,99.99
2023-04-18T01:41:06.537Z,99.99
2023-04-18T01:44:08.828Z,99.99
2023-04-18T01:47:11.083Z,99.99
2023-04-18T01:50:13.383Z,99.76
2023-04-18T01:53:18.132Z,99.47
2023-04-18T01:56:21.598Z,99.18
2023-04-18T01:59:23.902Z,99.31
2023-04-18T02:02:26.306Z,99.62
2023-04-18T02:05:28.631Z,99.40
2023-04-18T02:08:33.070Z,99.52
2023-04-18T02:11:35.381Z,99.75
2023-04-18T02:14:38.669Z,99.76
2023-04-18T02:17:41.722Z,99.99
2023-04-18T02:20:45.283Z,99.99
2023-04-18T02:23:47.582Z,99.99
2023-04-18T02:26:50.253Z,99.99
2023-04-18T02:29:54.205Z,99.99
2023-04-18T02:32:59.307Z,99.99
2023-04-18T02:36:01.906Z,99.99
2023-04-18T02:39:04.136Z,99.99
2023-04-18T02:42:06.370Z,99.99
2023-04-18T02:45:08.973Z,99.92
2023-04-18T02:48:11.245Z,99.99
2023-04-18T02:51:13.589Z,99.99
2023-04-18T02:54:16.210Z,99.99
2023-04-18T02:57:37.060Z,99.99
2023-04-18T03:00:59.686Z,99.99
2023-04-18T03:04:21.356Z,99.99
2023-04-18T03:07:35.876Z,99.99
2023-04-18T03:10:40.039Z,99.99
2023-04-18T03:13:42.974Z,99.99
2023-04-18T03:16:45.895Z,99.99
2023-04-18T03:19:51.871Z,99.99
2023-04-18T03:22:55.892Z,99.99
2023-04-18T03:26:01.062Z,99.99
2023-04-18T03:29:06.644Z,99.99
2023-04-18T03:32:09.041Z,99.99
2023-04-18T03:35:11.661Z,99.99
2023-04-18T03:38:14.603Z,99.99
2023-04-18T03:41:16.987Z,99.99
2023-04-18T03:44:19.356Z,99.99
2023-04-18T03:47:21.722Z,99.99
2023-04-18T03:50:30.232Z,99.51
2023-04-18T03:53:33.844Z,98.82
2023-04-18T03:56:36.298Z,98.20
2023-04-18T03:59:38.693Z,98.09
2023-04-18T04:02:42.221Z,97.21
2023-04-18T04:05:47.264Z,97.73
2023-04-18T04:08:51.241Z,97.49
2023-04-18T04:11:57.898Z,97.40
2023-04-18T04:15:02.087Z,98.49
2023-04-18T04:18:06.308Z,99.20
2023-04-18T04:21:11.337Z,99.58
2023-04-18T04:24:22.771Z,99.13
2023-04-18T04:27:26.966Z,98.66
2023-04-18T04:30:29.260Z,98.15
2023-04-18T04:33:33.378Z,97.76
2023-04-18T04:36:41.264Z,97.61
2023-04-18T04:39:46.256Z,97.49
2023-04-18T04:43:17.265Z,97.49
2023-04-18T04:46:23.284Z,97.37
2023-04-18T04:49:25.962Z,97.61
2023-04-18T04:52:28.238Z,97.01
2023-04-18T04:55:30.852Z,97.55
2023-04-18T04:58:33.693Z,97.21
2023-04-18T05:01:50.603Z,96.88
2023-04-18T05:04:52.883Z,96.57
2023-04-18T05:08:01.306Z,96.69
2023-04-18T05:11:06.551Z,96.48
2023-04-18T05:14:08.770Z,95.91
2023-04-18T05:17:11.157Z,95.80
2023-04-18T05:20:13.463Z,95.43
2023-04-18T05:23:16.309Z,95.50
2023-04-18T05:26:22.250Z,95.19
2023-04-18T05:29:31.036Z,95.01
2023-04-18T05:32:33.359Z,95.54
2023-04-18T05:35:38.411Z,95.79
2023-04-18T05:38:40.710Z,96.18
2023-04-18T05:41:43.185Z,95.02
2023-04-18T05:44:47.354Z,95.36
2023-04-18T05:47:49.664Z,95.42
2023-04-18T05:50:51.936Z,95.56
2023-04-18T05:53:57.464Z,94.96
2023-04-18T05:57:00.902Z,95.54
2023-04-18T06:00:14.222Z,95.70
2023-04-18T06:03:17.644Z,95.24
2023-04-18T06:06:27.023Z,95.03
2023-04-18T06:09:36.081Z,94.52
2023-04-18T06:12:48.067Z,93.81
2023-04-18T06:15:55.145Z,92.54
2023-04-18T06:19:12.073Z,93.81
2023-04-18T06:22:24.113Z,92.32
2023-04-18T06:25:28.835Z,92.39
2023-04-18T06:28:42.719Z,91.31
2023-04-18T06:31:51.318Z,90.85
2023-04-18T06:35:00.165Z,90.53
2023-04-18T06:38:07.708Z,90.17
2023-04-18T06:41:11.732Z,90.80
2023-04-18T06:44:16.205Z,90.11
2023-04-18T06:47:22.509Z,89.23
2023-04-18T06:50:25.338Z,86.78
2023-04-18T06:53:30.012Z,87.09
2023-04-18T06:56:34.389Z,86.65
2023-04-18T06:59:41.507Z,88.51
2023-04-18T07:02:44.255Z,87.98
2023-04-18T07:05:48.755Z,88.78
2023-04-18T07:08:53.354Z,88.71
2023-04-18T07:11:59.770Z,87.91
2023-04-18T07:15:03.465Z,86.35
2023-04-18T07:18:07.110Z,86.79
2023-04-18T07:21:12.565Z,88.49
2023-04-18T07:24:18.187Z,87.23
2023-04-18T07:27:23.180Z,86.91
2023-04-18T07:30:26.384Z,87.68
2023-04-18T07:33:31.911Z,87.49
2023-04-18T07:36:40.260Z,85.47
2023-04-18T07:39:42.503Z,85.57
2023-04-18T07:42:44.875Z,85.21
2023-04-18T07:45:47.168Z,87.15
2023-04-18T07:48:53.747Z,84.46
2023-04-18T07:51:56.549Z,85.84
2023-04-18T07:54:58.908Z,85.49
2023-04-18T07:58:01.416Z,86.44
2023-04-18T08:01:03.797Z,87.09
2023-04-18T08:04:06.609Z,85.83
2023-04-18T08:07:09.302Z,85.26
2023-04-18T08:10:11.843Z,83.71
2023-04-18T08:13:14.403Z,83.23
2023-04-18T08:16:19.364Z,81.75
2023-04-18T08:19:23.566Z,83.90
2023-04-18T08:22:30.097Z,82.05
2023-04-18T08:25:36.736Z,83.35
2023-04-18T08:28:46.557Z,80.55
2023-04-18T08:31:49.461Z,80.05
2023-04-18T08:34:56.198Z,82.48
2023-04-18T08:38:05.472Z,81.00
2023-04-18T08:41:14.497Z,81.32
2023-04-18T08:44:17.705Z,81.20
2023-04-18T08:47:23.977Z,78.47
2023-04-18T08:50:27.149Z,79.60
2023-04-18T08:53:35.849Z,78.57
2023-04-18T08:56:38.494Z,80.07
2023-04-18T08:59:46.693Z,82.13
2023-04-18T09:02:57.254Z,80.49
2023-04-18T09:06:30.442Z,80.31
2023-04-18T09:10:01.412Z,80.31
2023-04-18T09:13:04.437Z,79.72
2023-04-18T09:16:09.855Z,81.25
2023-04-18T09:19:19.441Z,80.76
2023-04-18T09:22:22.076Z,81.87
2023-04-18T09:25:36.108Z,82.69
2023-04-18T09:28:41.438Z,83.03
2023-04-18T09:32:02.319Z,84.39
2023-04-18T09:35:09.511Z,84.31
2023-04-18T09:38:11.856Z,84.25
2023-04-18T09:41:21.378Z,85.39
2023-04-18T09:44:25.705Z,86.16
2023-04-18T09:47:29.125Z,86.71
2023-04-18T09:50:55.805Z,88.00
2023-04-18T09:54:07.220Z,90.84
2023-04-18T09:57:14.830Z,91.90
2023-04-18T10:00:30.586Z,91.99
2023-04-18T10:03:46.353Z,92.78
2023-04-18T10:06:51.701Z,93.14
2023-04-18T10:09:54.689Z,93.82
2023-04-18T10:13:02.418Z,93.42
2023-04-18T10:16:06.840Z,93.64
2023-04-18T10:19:23.158Z,93.90
2023-04-18T10:22:29.193Z,94.08
2023-04-18T10:25:52.199Z,94.71
2023-04-18T10:29:00.153Z,90.48
2023-04-18T10:32:09.008Z,91.23
2023-04-18T10:35:11.574Z,91.22
2023-04-18T10:38:24.603Z,90.56
2023-04-18T10:41:32.385Z,89.25
2023-04-18T10:44:39.238Z,89.05
2023-04-18T11:07:19.970Z,86.71
2023-04-18T11:10:25.556Z,87.14
2023-04-18T11:13:33.429Z,88.27
2023-04-18T11:16:37.896Z,86.52
2023-04-18T11:19:41.348Z,87.33
2023-04-18T11:22:48.449Z,87.70
2023-04-18T11:25:54.387Z,87.23
2023-04-18T11:28:57.541Z,86.67
2023-04-18T11:32:00.157Z,84.93
2023-04-18T11:35:04.094Z,83.96
2023-04-18T11:38:08.125Z,84.91
2023-04-18T11:41:14.733Z,83.65
2023-04-18T11:44:27.278Z,82.80
2023-04-18T11:47:37.253Z,82.34
2023-04-18T11:50:40.154Z,80.90
2023-04-18T11:53:43.720Z,81.47
2023-04-18T11:56:48.721Z,79.47
2023-04-18T11:59:56.662Z,79.46
2023-04-18T12:03:01.945Z,80.32
2023-04-18T12:06:07.297Z,80.76
2023-04-18T12:09:14.210Z,81.19
2023-04-18T12:12:19.472Z,80.75
2023-04-18T12:15:28.196Z,80.16
2023-04-18T12:18:31.593Z,80.32
2023-04-18T12:21:33.981Z,81.76
2023-04-18T12:24:39.007Z,82.47
2023-04-18T12:27:58.551Z,83.50
2023-04-18T12:31:01.489Z,83.88
2023-04-18T12:34:03.793Z,84.25
2023-04-18T12:37:06.022Z,85.84
2023-04-18T12:40:08.952Z,86.11
2023-04-18T12:43:11.245Z,86.68
2023-04-18T12:46:13.588Z,88.20
2023-04-18T12:49:15.894Z,86.99
2023-04-18T12:52:18.262Z,86.31
2023-04-18T12:55:22.686Z,86.59
2023-04-18T12:58:25.048Z,86.46
2023-04-18T13:01:27.897Z,85.57
2023-04-18T13:04:30.435Z,85.56
2023-04-18T13:07:33.070Z,83.92
2023-04-18T13:10:35.493Z,84.08
2023-04-18T13:13:37.730Z,84.95
2023-04-18T13:16:42.530Z,84.37
2023-04-18T13:19:46.045Z,83.45
2023-04-18T13:22:48.500Z,83.20
2023-04-18T13:25:50.871Z,83.20
2023-04-18T13:28:53.117Z,82.10
2023-04-18T13:31:55.391Z,85.31
2023-04-18T13:34:57.642Z,85.52
2023-04-18T13:37:59.876Z,86.24
2023-04-18T13:41:12.380Z,86.64
2023-04-18T13:44:15.726Z,87.01
2023-04-18T13:47:19.399Z,87.64
2023-04-18T13:50:23.137Z,87.70
2023-04-18T13:53:25.531Z,87.91
2023-04-18T13:56:28.265Z,88.07
2023-04-18T13:59:33.380Z,88.61
2023-04-18T14:02:35.730Z,88.94
2023-04-18T14:05:38.289Z,89.98
2023-04-18T14:08:40.951Z,90.16
2023-04-18T14:11:43.655Z,91.07
2023-04-18T14:14:45.876Z,90.61
2023-04-18T14:17:48.485Z,90.81
2023-04-18T14:20:51.652Z,91.03
2023-04-18T14:23:54.067Z,89.82
2023-04-18T14:26:56.287Z,90.55
2023-04-18T14:29:58.508Z,91.60
2023-04-18T14:33:00.802Z,91.68
2023-04-18T14:36:03.537Z,92.04
2023-04-18T14:39:05.863Z,92.12
2023-04-18T14:42:08.110Z,92.37
2023-04-18T14:45:11.648Z,92.07
2023-04-18T14:48:14.018Z,93.55
2023-04-18T14:51:16.965Z,93.20
2023-04-18T14:54:19.351Z,93.22
2023-04-18T14:57:21.588Z,93.13
2023-04-18T15:00:23.879Z,93.21
2023-04-18T15:03:26.247Z,93.54
2023-04-18T15:06:28.582Z,94.35
2023-04-18T15:09:30.818Z,93.26
2023-04-18T15:12:33.146Z,93.63
2023-04-18T15:15:35.756Z,94.00
2023-04-18T15:18:38.130Z,93.06
2023-04-18T15:21:40.607Z,93.31
2023-04-18T15:24:42.836Z,94.61
2023-04-18T15:27:45.074Z,94.61
2023-04-18T15:30:47.616Z,94.53
2023-04-18T15:33:49.822Z,94.47
2023-04-18T15:36:52.145Z,94.78
2023-04-18T15:39:54.435Z,94.58
2023-04-18T15:42:57.901Z,94.41
2023-04-18T15:46:00.208Z,94.24
2023-04-18T15:49:10.211Z,94.13
2023-04-18T15:52:15.650Z,94.60
2023-04-18T15:55:17.956Z,94.41
2023-04-18T15:58:22.000Z,94.14
2023-04-18T16:01:24.282Z,94.49
2023-04-18T16:04:26.881Z,93.84
2023-04-18T16:07:29.187Z,93.91
2023-04-18T16:10:31.461Z,93.91
2023-04-18T16:13:38.232Z,93.81
2023-04-18T16:16:46.947Z,93.85
2023-04-18T16:19:49.231Z,93.45
2023-04-18T16:22:51.546Z,93.28
2023-04-18T16:25:55.313Z,93.65
2023-04-18T16:28:57.646Z,93.62
2023-04-18T16:31:59.951Z,93.45
2023-04-18T16:35:03.434Z,93.84
2023-04-18T16:38:05.930Z,93.98
2023-04-18T16:41:08.209Z,93.63
2023-04-18T16:44:10.568Z,94.08
2023-04-18T16:47:12.792Z,94.12
2023-04-18T16:50:15.502Z,94.62
2023-04-18T16:53:18.028Z,94.91
2023-04-18T16:56:20.373Z,95.57
2023-04-18T16:59:22.646Z,95.68
2023-04-18T17:02:25.123Z,96.37
2023-04-18T17:05:27.482Z,96.68
2023-04-18T17:08:31.995Z,96.78
2023-04-18T17:11:39.639Z,96.84
2023-04-18T17:14:42.118Z,96.73
2023-04-18T17:17:44.384Z,97.09
2023-04-18T17:20:46.710Z,97.27
2023-04-18T17:23:48.995Z,96.60
2023-04-18T17:26:51.280Z,96.86
2023-04-18T17:29:53.548Z,97.30
2023-04-18T17:32:56.113Z,97.75
2023-04-18T17:35:59.871Z,97.93
2023-04-18T17:39:08.237Z,97.95
2023-04-18T17:42:10.743Z,97.74
2023-04-18T17:45:13.047Z,98.62
2023-04-18T17:48:16.361Z,98.94
2023-04-18T17:51:19.474Z,98.39
2023-04-18T17:54:21.722Z,98.49
2023-04-18T17:57:26.079Z,98.96
2023-04-18T18:00:28.335Z,98.70
2023-04-18T18:03:30.953Z,98.84
2023-04-18T18:06:33.416Z,98.87
2023-04-18T18:09:35.883Z,99.23
2023-04-18T18:12:38.300Z,99.19
2023-04-18T18:15:40.651Z,99.27
2023-04-18T18:18:43.221Z,99.52
2023-04-18T18:21:45.538Z,98.91
2023-04-18T18:24:47.861Z,99.07
2023-04-18T18:27:51.373Z,99.26
2023-04-18T18:30:54.122Z,99.25
2023-04-18T18:33:56.446Z,99.10
2023-04-18T18:36:58.714Z,98.87
2023-04-18T18:40:04.916Z,99.17
2023-04-18T18:43:07.230Z,99.99
2023-04-18T18:46:09.527Z,99.98
2023-04-18T18:49:11.926Z,99.79
2023-04-18T18:52:14.448Z,99.83
2023-04-18T18:55:16.817Z,99.45
2023-04-18T18:58:19.091Z,99.44
2023-04-18T19:01:21.493Z,99.57
2023-04-18T19:04:24.454Z,99.82
2023-04-18T19:07:27.852Z,99.82
2023-04-18T19:10:31.803Z,99.66
2023-04-18T19:13:34.076Z,99.53
2023-04-18T19:16:36.615Z,99.69
2023-04-18T19:19:39.053Z,99.80
2023-04-18T19:22:41.336Z,99.73
2023-04-18T19:25:44.939Z,99.56
2023-04-18T19:28:47.259Z,99.64
2023-04-18T19:31:49.667Z,99.99
2023-04-18T19:34:52.176Z,99.99
2023-04-18T19:38:01.415Z,99.99
2023-04-18T19:41:03.704Z,99.82
2023-04-18T19:44:05.979Z,99.99
2023-04-18T19:47:08.278Z,99.99
2023-04-18T19:50:11.538Z,99.70
2023-04-18T19:53:15.605Z,99.45
2023-04-18T19:56:18.012Z,99.48
2023-04-18T19:59:20.266Z,99.99
2023-04-18T20:02:22.528Z,99.99
2023-04-18T20:05:24.934Z,99.99
2023-04-18T20:08:27.482Z,99.99
2023-04-18T20:11:29.757Z,99.90
2023-04-18T20:14:32.115Z,99.99
2023-04-18T20:17:34.813Z,99.99
2023-04-18T20:20:37.155Z,99.99
2023-04-18T20:23:42.155Z,99.99
2023-04-18T20:26:44.485Z,99.99
2023-04-18T20:29:47.057Z,99.99
2023-04-18T20:32:49.335Z,99.99
2023-04-18T20:35:51.610Z,99.99
2023-04-18T20:38:53.836Z,99.99
2023-04-18T20:41:57.899Z,99.99
2023-04-18T20:45:00.335Z,99.99
2023-04-18T20:48:02.691Z,99.99
2023-04-18T20:51:05.096Z,99.49
2023-04-18T20:54:07.492Z,99.36
2023-04-18T20:57:09.750Z,98.90
2023-04-18T21:00:13.971Z,99.33
2023-04-18T21:03:16.974Z,99.57
2023-04-18T21:06:22.127Z,99.61
2023-04-18T21:09:24.437Z,99.64
2023-04-18T21:12:27.598Z,99.71
2023-04-18T21:15:29.968Z,99.37
2023-04-18T21:18:32.216Z,99.58
2023-04-18T21:21:34.864Z,99.41
2023-04-18T21:24:37.220Z,99.67
2023-04-18T21:27:39.587Z,99.42
2023-04-18T21:30:41.858Z,99.99
2023-04-18T21:33:44.124Z,99.99
2023-04-18T21:36:46.425Z,99.99
2023-04-18T21:39:48.637Z,99.92
2023-04-18T21:42:53.555Z,99.99
2023-04-18T21:45:55.850Z,99.94
2023-04-18T21:48:58.208Z,99.99
2023-04-18T21:52:00.722Z,99.99
2023-04-18T21:55:04.090Z,99.81
2023-04-18T21:58:06.336Z,99.48
2023-04-18T22:01:08.685Z,98.88
2023-04-18T22:04:12.459Z,98.48
2023-04-18T22:07:19.014Z,98.32
2023-04-18T22:10:21.312Z,97.88
2023-04-18T22:13:24.070Z,97.32
2023-04-18T22:16:26.388Z,97.18
2023-04-18T22:19:29.610Z,96.81
2023-04-18T22:22:31.858Z,96.13
2023-04-18T22:25:34.670Z,95.75
2023-04-18T22:28:37.210Z,95.29
2023-04-18T22:31:39.669Z,95.03
2023-04-18T22:34:41.880Z,94.36
2023-04-18T22:37:44.273Z,94.05
2023-04-18T22:40:46.565Z,93.97
2023-04-18T22:43:48.814Z,93.33
2023-04-18T22:46:54.548Z,93.26
2023-04-18T22:49:56.941Z,93.10
2023-04-18T22:52:59.182Z,93.17
2023-04-18T22:56:01.535Z,93.32
2023-04-18T22:59:03.833Z,92.79
2023-04-18T23:02:06.199Z,93.11
2023-04-18T23:05:09.028Z,94.30
2023-04-18T23:08:12.113Z,93.09
2023-04-18T23:11:14.443Z,93.08
2023-04-18T23:14:17.352Z,92.71
2023-04-18T23:17:19.591Z,92.49
2023-04-18T23:20:22.140Z,92.82
2023-04-18T23:23:24.648Z,93.35
2023-04-18T23:26:26.944Z,92.77
2023-04-18T23:29:29.350Z,93.75
2023-04-18T23:32:31.668Z,93.95
2023-04-18T23:35:34.133Z,94.28
2023-04-18T23:38:37.519Z,94.64
2023-04-18T23:41:39.744Z,94.85
2023-04-18T23:44:42.029Z,95.19
2023-04-18T23:47:44.449Z,95.40
2023-04-18T23:50:52.341Z,94.95
2023-04-18T23:53:54.667Z,94.86
2023-04-18T23:56:57.290Z,94.99
2023-04-18T23:59:59.522Z,95.56
